Time;durP1;ratioP1;P1;durP2;ratioP2;P2;SDS_P1;SDS_P2;PMS_P1;PMS_P2;Temp;Humidity;BMP_temperature;BMP_pressure;BME280_temperature;BME280_humidity;BME280_pressure;Samples;Min_cycle;Max_cycle;Signal;HPM_P1;HPM_P2
2023/03/15 00:02:23;;;;;;;0.50;0.10;;;5.50;99.90;;;;;;5031727;28;20449;-76
2023/03/15 00:04:53;;;;;;;0.50;0.10;;;5.50;99.90;;;;;;5028828;28;21118;-74
2023/03/15 00:07:24;;;;;;;0.50;0.10;;;5.50;99.90;;;;;;5011494;28;20483;-76
2023/03/15 00:09:54;;;;;;;0.50;0.10;;;5.50;99.90;;;;;;5012812;28;20456;-75
2023/03/15 00:12:22;;;;;;;0.50;0.10;;;5.50;99.90;;;;;;5013464;28;20459;-75
2023/03/15 00:14:51;;;;;;;0.50;0.10;;;5.40;99.90;;;;;;5017630;28;20551;-75
2023/03/15 00:17:21;;;;;;;0.50;0.10;;;5.40;99.90;;;;;;5026401;28;20481;-77
2023/03/15 00:19:49;;;;;;;0.50;0.10;;;5.40;99.90;;;;;;5038464;28;20468;-74
2023/03/15 00:22:17;;;;;;;0.50;0.10;;;5.30;99.90;;;;;;5014405;28;20801;-75
2023/03/15 00:24:45;;;;;;;0.50;0.10;;;5.30;99.90;;;;;;5013468;28;20467;-73
2023/03/15 00:27:14;;;;;;;0.50;0.10;;;5.20;99.90;;;;;;5013664;28;20512;-78
2023/03/15 00:29:42;;;;;;;3.53;2.23;;;5.20;99.90;;;;;;5019968;28;20481;-74
2023/03/15 00:32:10;;;;;;;0.50;0.10;;;5.10;99.90;;;;;;5033084;28;20448;-74
2023/03/15 00:34:37;;;;;;;0.50;0.23;;;5.00;99.90;;;;;;5022202;28;20488;-75
2023/03/15 00:37:05;;;;;;;0.60;0.33;;;5.00;99.90;;;;;;5013020;28;20450;-73
2023/03/15 00:39:38;;;;;;;0.50;0.17;;;5.00;99.90;;;;;;5012267;28;20453;-75
2023/03/15 00:42:06;;;;;;;0.50;0.10;;;4.90;99.90;;;;;;5012281;28;20448;-75
2023/03/15 00:44:35;;;;;;;0.50;0.10;;;4.90;99.90;;;;;;5011966;28;20458;-74
2023/03/15 00:47:03;;;;;;;0.50;0.10;;;4.80;99.90;;;;;;5011826;28;20476;-75
2023/03/15 00:49:32;;;;;;;0.50;0.10;;;4.80;99.90;;;;;;5012286;28;20452;-75
2023/03/15 00:52:00;;;;;;;0.50;0.10;;;4.80;99.90;;;;;;5010486;28;20451;-75
2023/03/15 00:54:27;;;;;;;0.50;0.10;;;4.70;99.90;;;;;;5011207;28;20661;-74
2023/03/15 00:56:55;;;;;;;0.50;0.10;;;4.70;99.90;;;;;;5010889;28;20447;-74
2023/03/15 00:59:23;;;;;;;0.50;0.20;;;4.70;99.90;;;;;;5011597;28;20951;-75
2023/03/15 05:01:13;;;;;;;0.50;0.10;;;3.70;99.90;;;;;;5781373;23;20492;-77
2023/03/15 05:03:41;;;;;;;0.50;0.10;;;3.50;99.90;;;;;;5054242;28;20923;-77
2023/03/15 05:06:09;;;;;;;0.50;0.10;;;3.50;99.90;;;;;;5065051;28;20645;-77
2023/03/15 05:08:37;;;;;;;0.50;0.10;;;3.50;99.90;;;;;;5034754;28;20488;-77
2023/03/15 05:11:05;;;;;;;0.50;0.10;;;3.50;99.90;;;;;;5049431;28;20461;-78
2023/03/15 05:13:33;;;;;;;0.50;0.10;;;3.60;99.90;;;;;;5058457;28;20502;-78
2023/03/15 05:16:02;;;;;;;0.50;0.10;;;3.60;99.90;;;;;;5048660;23;20520;-76
2023/03/15 05:18:32;;;;;;;0.50;0.20;;;3.50;99.90;;;;;;5023705;28;20496;-75
2023/03/15 05:21:00;;;;;;;0.50;0.10;;;3.50;99.90;;;;;;5026022;28;20511;-75
2023/03/15 05:23:28;;;;;;;0.50;0.10;;;3.40;99.90;;;;;;5015554;28;20448;-76
2023/03/15 05:25:56;;;;;;;0.50;0.10;;;3.30;99.90;;;;;;5016337;28;20473;-76
2023/03/15 05:28:25;;;;;;;0.50;0.10;;;3.30;99.90;;;;;;5017279;28;20817;-74
2023/03/15 05:30:53;;;;;;;0.50;0.10;;;3.30;99.90;;;;;;5014839;28;20464;-74
2023/03/15 05:33:23;;;;;;;0.60;0.20;;;3.20;99.90;;;;;;5032514;28;20802;-76
2023/03/15 05:35:55;;;;;;;0.50;0.10;;;3.30;99.90;;;;;;5022103;28;20514;-76
2023/03/15 05:38:25;;;;;;;0.60;0.53;;;3.30;99.90;;;;;;5013413;28;20453;-76
2023/03/15 05:40:53;;;;;;;0.50;0.10;;;3.40;99.90;;;;;;5018216;28;20460;-75
2023/03/15 05:43:21;;;;;;;0.50;0.10;;;3.40;99.90;;;;;;5033924;28;20502;-76
2023/03/15 05:45:49;;;;;;;0.50;0.10;;;3.40;99.90;;;;;;5019649;28;20472;-74
2023/03/15 05:48:17;;;;;;;0.50;0.10;;;3.50;99.90;;;;;;5017369;28;20483;-76
2023/03/15 05:50:45;;;;;;;0.50;0.20;;;3.50;99.90;;;;;;5011666;28;20521;-76
2023/03/15 05:53:14;;;;;;;0.50;0.10;;;3.50;99.90;;;;;;5022830;28;20452;-75
2023/03/15 05:55:42;;;;;;;0.50;0.10;;;3.60;99.90;;;;;;5035583;28;20466;-76
2023/03/15 05:58:10;;;;;;;0.50;0.10;;;3.60;99.90;;;;;;5018090;28;20441;-76
2023/03/15 06:00:38;;;;;;;0.50;0.10;;;3.50;99.90;;;;;;5013203;28;20466;-74
2023/03/15 06:03:05;;;;;;;0.50;0.10;;;3.50;99.90;;;;;;5017210;28;20457;-76
2023/03/15 06:05:33;;;;;;;0.50;0.10;;;3.40;99.90;;;;;;5003603;28;20465;-75
2023/03/15 06:08:01;;;;;;;0.50;0.10;;;3.40;99.90;;;;;;5002572;28;20484;-76
2023/03/15 06:10:30;;;;;;;0.50;0.10;;;3.30;99.90;;;;;;5018356;28;20449;-76
2023/03/15 06:12:58;;;;;;;0.50;0.10;;;3.30;99.90;;;;;;5036149;28;20444;-76
2023/03/15 06:15:26;;;;;;;0.50;0.10;;;3.30;99.90;;;;;;5031551;28;20521;-76
2023/03/15 06:17:54;;;;;;;0.50;0.10;;;3.30;99.90;;;;;;5016238;28;20529;-76
2023/03/15 06:20:22;;;;;;;0.50;0.20;;;3.30;99.90;;;;;;5017081;28;20458;-76
2023/03/15 06:22:50;;;;;;;0.50;0.10;;;3.20;99.90;;;;;;5011497;28;20469;-77
2023/03/15 06:25:18;;;;;;;0.50;0.10;;;2.90;99.90;;;;;;5019897;28;20486;-76
2023/03/15 06:27:47;;;;;;;0.50;0.10;;;2.90;99.90;;;;;;5015673;28;20484;-76
2023/03/15 06:30:15;;;;;;;0.60;0.30;;;2.70;99.90;;;;;;5001594;28;20443;-76
2023/03/15 06:32:44;;;;;;;0.50;0.10;;;2.70;99.90;;;;;;5016217;28;20464;-76
2023/03/15 06:35:12;;;;;;;0.50;0.20;;;2.70;99.90;;;;;;5017669;28;20504;-75
2023/03/15 06:37:40;;;;;;;0.50;0.20;;;2.70;99.90;;;;;;5018052;28;20436;-76
2023/03/15 06:40:10;;;;;;;0.53;0.27;;;2.60;99.90;;;;;;5017283;28;20449;-76
2023/03/15 06:42:40;;;;;;;0.50;0.10;;;2.60;1.00;;;;;;5017419;28;20451;-76
2023/03/15 06:45:10;;;;;;;0.50;0.10;;;2.60;1.00;;;;;;5012032;28;20462;-75
2023/03/15 06:47:38;;;;;;;0.50;0.20;;;2.60;1.00;;;;;;5009415;28;20490;-76
2023/03/15 06:50:07;;;;;;;0.50;0.20;;;2.70;1.00;;;;;;5012061;28;20437;-77
2023/03/15 06:52:35;;;;;;;0.80;0.70;;;2.70;1.00;;;;;;5010082;28;20461;-76
2023/03/15 06:55:03;;;;;;;6.43;1.07;;;2.70;1.00;;;;;;5006898;28;20462;-75
2023/03/15 06:57:32;;;;;;;0.60;0.40;;;2.70;1.00;;;;;;5012168;28;20901;-75
2023/03/15 06:59:59;;;;;;;0.50;0.30;;;2.70;1.00;;;;;;5016353;28;20445;-77
2023/03/15 07:02:35;;;;;;;0.50;0.20;;;2.80;1.00;;;;;;5017279;28;20469;-77
2023/03/15 07:05:04;;;;;;;0.50;0.20;;;2.60;1.00;;;;;;5018100;28;20473;-76
2023/03/15 07:07:32;;;;;;;0.80;0.60;;;2.60;1.00;;;;;;5010483;28;20449;-75
2023/03/15 07:10:00;;;;;;;0.50;0.20;;;2.60;1.00;;;;;;5019534;28;20460;-77
2023/03/15 07:12:28;;;;;;;1.10;0.40;;;2.70;1.00;;;;;;5018354;28;20451;-75
2023/03/15 07:14:55;;;;;;;0.60;0.40;;;2.70;1.00;;;;;;5017287;28;20474;-75
2023/03/15 07:17:23;;;;;;;0.70;0.30;;;2.70;1.00;;;;;;5015699;28;20468;-78
2023/03/15 07:19:52;;;;;;;2.10;1.43;;;2.80;1.00;;;;;;5036570;28;20450;-77
2023/03/15 07:22:23;;;;;;;0.50;0.10;;;2.80;1.00;;;;;;5040377;28;20486;-76
2023/03/15 07:24:51;;;;;;;0.60;0.30;;;2.80;1.00;;;;;;5019836;28;20483;-76
2023/03/15 07:27:19;;;;;;;0.50;0.33;;;5.20;1.00;;;;;;5032508;28;20466;-76
2023/03/15 07:29:47;;;;;;;0.50;0.20;;;2.80;1.00;;;;;;5026716;28;20509;-77
2023/03/15 07:32:15;;;;;;;1.13;0.87;;;2.80;1.00;;;;;;5019448;28;20448;-77
2023/03/15 07:34:43;;;;;;;2.23;2.10;;;2.90;1.00;;;;;;5025424;28;20449;-76
2023/03/15 07:37:12;;;;;;;0.50;0.20;;;2.90;1.00;;;;;;5025771;28;20461;-77
2023/03/15 07:39:40;;;;;;;1.37;0.87;;;2.70;1.00;;;;;;5027210;28;20522;-77
2023/03/15 07:42:08;;;;;;;1.03;1.03;;;2.70;1.00;;;;;;5016855;28;20453;-76
2023/03/15 07:44:36;;;;;;;0.50;0.27;;;;;;;;;;5024417;28;20444;-76
2023/03/15 07:47:04;;;;;;;0.50;0.20;;;2.70;1.00;;;;;;5031718;28;20438;-77
2023/03/15 07:49:33;;;;;;;0.50;0.20;;;2.80;1.00;;;;;;5030938;28;20694;-75
2023/03/15 07:52:02;;;;;;;0.50;0.20;;;2.90;1.00;;;;;;5030646;28;20473;-77
2023/03/15 07:54:33;;;;;;;0.50;0.20;;;3.10;1.00;;;;;;5028336;28;20453;-75
2023/03/15 07:57:01;;;;;;;0.50;0.10;;;2.90;1.00;;;;;;5034884;28;20517;-77
2023/03/15 07:59:29;;;;;;;1.83;0.97;;;3.10;1.00;;;;;;5039434;28;20490;-77
2023/03/15 08:01:57;;;;;;;0.50;0.10;;;3.20;1.00;;;;;;5029306;28;20453;-76
2023/03/15 08:04:29;;;;;;;0.50;0.20;;;3.40;1.00;;;;;;5019657;28;20474;-76
2023/03/15 08:06:56;;;;;;;0.50;0.20;;;3.40;1.00;;;;;;5018038;28;20452;-77
2023/03/15 08:09:24;;;;;;;0.50;0.10;;;3.50;1.00;;;;;;5028444;28;20488;-76
2023/03/15 08:11:54;;;;;;;0.60;0.33;;;3.60;1.00;;;;;;5006782;28;20457;-75
2023/03/15 08:14:21;;;;;;;0.50;0.10;;;3.80;1.00;;;;;;5014751;28;20457;-76
2023/03/15 08:16:50;;;;;;;0.50;0.20;;;3.80;1.00;;;;;;5009155;28;20480;-76
2023/03/15 08:19:18;;;;;;;0.60;0.47;;;3.80;99.90;;;;;;5017180;28;20445;-76
2023/03/15 08:21:46;;;;;;;1.33;0.97;;;1.90;99.90;;;;;;5019678;28;20457;-77
2023/03/15 08:24:15;;;;;;;0.50;0.20;;;3.90;99.90;;;;;;5015085;28;20475;-77
2023/03/15 08:26:44;;;;;;;0.50;0.10;;;3.90;99.90;;;;;;5005909;28;20472;-76
2023/03/15 08:29:13;;;;;;;1.27;1.17;;;4.00;99.90;;;;;;5019291;28;21038;-76
2023/03/15 08:31:41;;;;;;;2.07;1.53;;;4.00;99.90;;;;;;5012204;28;20478;-77
2023/03/15 08:34:10;;;;;;;0.90;0.73;;;3.70;99.90;;;;;;5010771;28;20449;-78
2023/03/15 08:36:38;;;;;;;2.30;1.50;;;3.70;99.90;;;;;;5013967;28;20528;-76
2023/03/15 08:39:07;;;;;;;3.17;1.70;;;3.60;99.90;;;;;;5016639;28;20830;-78
2023/03/15 08:41:35;;;;;;;0.50;0.20;;;3.70;99.90;;;;;;5036498;28;20436;-80
2023/03/15 08:44:03;;;;;;;2.60;2.50;;;3.70;99.90;;;;;;5024342;28;20461;-76
2023/03/15 08:46:32;;;;;;;1.53;0.70;;;3.80;99.90;;;;;;5033063;28;20538;-77
2023/03/15 08:49:01;;;;;;;2.40;1.17;;;3.80;99.90;;;;;;5027966;28;20488;-77
2023/03/15 08:51:29;;;;;;;0.50;0.10;;;3.80;99.90;;;;;;5028211;28;20457;-78
2023/03/15 08:53:58;;;;;;;2.83;0.73;;;3.80;99.90;;;;;;5031087;28;20896;-81
2023/03/15 08:56:26;;;;;;;0.67;0.67;;;3.90;99.90;;;;;;5018402;28;20477;-78
2023/03/15 08:58:54;;;;;;;0.80;0.73;;;3.90;99.90;;;;;;5021075;28;20466;-78
2023/03/15 09:01:22;;;;;;;0.50;0.20;;;4.10;99.90;;;;;;5017198;28;20517;-79
2023/03/15 09:03:55;;;;;;;4.93;0.40;;;;;;;;;;5027032;28;20545;-72
2023/03/15 09:06:22;;;;;;;0.50;0.20;;;4.20;99.90;;;;;;5013044;28;20622;-73
2023/03/15 09:08:53;;;;;;;0.50;0.20;;;4.20;99.90;;;;;;5002026;28;20477;-76
2023/03/15 09:11:21;;;;;;;6.33;1.83;;;4.20;99.90;;;;;;5015337;28;20459;-75
2023/03/15 09:13:49;;;;;;;0.60;0.40;;;4.20;99.90;;;;;;5013651;28;20964;-73
2023/03/15 09:16:17;;;;;;;0.60;0.30;;;4.30;99.90;;;;;;5015501;28;20477;-74
2023/03/15 09:18:45;;;;;;;0.50;0.20;;;4.50;99.90;;;;;;5016733;28;20486;-74
2023/03/15 09:21:15;;;;;;;0.60;0.53;;;4.70;99.90;;;;;;5015694;28;20448;-74
2023/03/15 09:23:42;;;;;;;0.50;0.10;;;4.70;99.90;;;;;;5015292;28;20465;-74
2023/03/15 09:26:10;;;;;;;0.60;0.30;;;4.80;99.90;;;;;;5014917;28;20471;-72
2023/03/15 09:28:38;;;;;;;0.50;0.20;;;4.90;99.90;;;;;;5015161;28;20449;-74
2023/03/15 09:31:07;;;;;;;1.53;0.57;;;;;;;;;;5015360;28;20446;-73
2023/03/15 09:33:35;;;;;;;0.70;0.70;;;5.10;99.90;;;;;;5015849;28;20451;-74
2023/03/15 09:36:03;;;;;;;0.90;0.70;;;5.10;99.90;;;;;;5017183;28;20473;-74
2023/03/15 09:38:33;;;;;;;1.30;1.20;;;5.10;99.90;;;;;;5015551;28;20983;-75
2023/03/15 09:41:02;;;;;;;0.50;0.20;;;5.00;99.90;;;;;;5015272;28;20440;-75
2023/03/15 09:44:01;;;;;;;0.50;0.10;;;5.10;99.90;;;;;;5015189;28;20546;-75
2023/03/15 09:46:32;;;;;;;0.83;0.80;;;5.20;99.90;;;;;;4999457;28;20986;-74
2023/03/15 09:49:08;;;;;;;1.77;0.60;;;5.20;99.90;;;;;;5004364;28;20490;-75
2023/03/15 09:51:41;;;;;;;0.60;0.40;;;5.20;99.90;;;;;;5014651;28;20447;-76
2023/03/15 09:54:14;;;;;;;0.70;0.50;;;5.30;99.90;;;;;;5011371;28;20463;-74
2023/03/15 09:56:52;;;;;;;0.57;0.30;;;5.30;99.90;;;;;;5009946;28;21006;-76
2023/03/15 09:59:21;;;;;;;0.50;0.10;;;5.30;99.90;;;;;;5004956;28;20459;-76
2023/03/15 10:01:53;;;;;;;0.90;0.43;;;5.30;99.90;;;;;;5019938;28;20453;-75
2023/03/15 10:04:27;;;;;;;2.00;0.40;;;5.10;99.90;;;;;;5020510;28;20450;-75
2023/03/15 10:06:57;;;;;;;2.60;1.43;;;5.10;99.90;;;;;;5015079;28;20450;-75
2023/03/15 10:09:31;;;;;;;0.50;0.10;;;5.20;99.90;;;;;;5014136;28;20471;-73
2023/03/15 10:12:23;;;;;;;1.20;0.30;;;5.30;99.90;;;;;;5017867;28;20525;-76
2023/03/15 10:15:24;;;;;;;1.37;0.73;;;5.40;99.90;;;;;;5017605;28;20541;-76
2023/03/15 10:18:09;;;;;;;0.50;0.10;;;5.40;99.90;;;;;;4991219;28;20505;-75
2023/03/15 10:20:42;;;;;;;0.50;0.10;;;5.40;99.90;;;;;;5019273;28;20454;-73
2023/03/15 10:23:15;;;;;;;0.60;0.20;;;5.50;99.90;;;;;;5024830;28;20443;-73
2023/03/15 10:25:46;;;;;;;0.60;0.30;;;5.70;99.90;;;;;;5030674;28;20468;-74
2023/03/15 10:28:21;;;;;;;0.50;0.10;;;5.80;99.90;;;;;;5026640;28;20443;-75
2023/03/15 10:30:50;;;;;;;0.50;0.10;;;5.80;99.90;;;;;;5000217;28;20487;-75
2023/03/15 10:33:27;;;;;;;0.50;0.10;;;5.90;99.90;;;;;;5018039;28;20451;-74
2023/03/15 10:35:55;;;;;;;0.90;0.77;;;5.90;99.90;;;;;;5016886;28;20471;-76
2023/03/15 10:38:38;;;;;;;2.43;1.30;;;5.90;99.90;;;;;;5017066;28;20447;-75
2023/03/15 10:41:07;;;;;;;4.93;0.83;;;5.80;99.90;;;;;;5016788;28;20474;-73
2023/03/15 10:43:38;;;;;;;0.50;0.10;;;5.80;99.90;;;;;;5016872;28;20512;-77
2023/03/15 10:46:08;;;;;;;0.50;0.10;;;5.80;99.90;;;;;;5017095;28;20519;-74
2023/03/15 10:48:37;;;;;;;0.50;0.10;;;6.10;99.90;;;;;;5017170;28;20454;-76
2023/03/15 10:51:07;;;;;;;0.50;0.10;;;6.10;99.90;;;;;;5018651;28;20478;-75
2023/03/15 10:53:36;;;;;;;0.50;0.10;;;6.30;99.90;;;;;;5019272;28;20452;-74
2023/03/15 10:56:12;;;;;;;0.50;0.20;;;6.50;99.90;;;;;;5018118;28;20472;-76
2023/03/15 10:58:45;;;;;;;0.50;0.10;;;6.60;99.90;;;;;;5018819;28;20463;-75
2023/03/15 11:01:24;;;;;;;0.50;0.20;;;6.70;99.90;;;;;;5018891;28;20442;-76
2023/03/15 11:04:12;;;;;;;0.50;0.10;;;6.80;99.90;;;;;;5017732;28;20455;-75
2023/03/15 11:06:43;;;;;;;0.50;0.10;;;7.10;99.90;;;;;;5016917;28;20471;-76
2023/03/15 11:09:14;;;;;;;0.70;0.43;;;7.20;99.90;;;;;;5018383;28;20474;-75
2023/03/15 11:11:56;;;;;;;0.50;0.10;;;7.10;99.90;;;;;;5016053;28;20499;-77
2023/03/15 11:14:25;;;;;;;0.50;0.10;;;7.20;99.90;;;;;;5021517;28;20495;-76
2023/03/15 11:16:55;;;;;;;0.50;0.10;;;7.20;99.90;;;;;;5002506;28;20472;-74
2023/03/15 11:19:27;;;;;;;0.50;0.10;;;7.20;99.90;;;;;;5017093;28;20988;-76
2023/03/15 11:21:57;;;;;;;0.50;0.10;;;7.20;99.90;;;;;;5023375;28;20458;-76
2023/03/15 11:24:27;;;;;;;1.07;0.97;;;7.30;99.90;;;;;;5007991;28;20444;-75
2023/03/15 11:27:00;;;;;;;0.73;0.53;;;7.30;99.90;;;;;;5004246;28;20448;-76
2023/03/15 11:29:31;;;;;;;0.50;0.10;;;7.40;99.90;;;;;;5018558;28;20452;-77
2023/03/15 11:32:01;;;;;;;0.50;0.20;;;7.40;99.90;;;;;;5011236;28;20487;-74
2023/03/15 11:34:42;;;;;;;0.53;0.17;;;7.50;99.90;;;;;;5014252;28;20498;-75
2023/03/15 11:37:15;;;;;;;0.50;0.10;;;7.50;99.90;;;;;;5025033;28;20519;-74
2023/03/15 11:39:47;;;;;;;0.50;0.10;;;7.50;99.90;;;;;;5017120;28;20529;-74
2023/03/15 11:42:25;;;;;;;0.50;0.10;;;7.60;99.90;;;;;;5015695;28;20444;-77
2023/03/15 11:44:58;;;;;;;0.50;0.10;;;7.80;99.90;;;;;;5015244;28;20468;-74
2023/03/15 11:47:37;;;;;;;0.50;0.10;;;7.80;99.90;;;;;;5016531;28;20451;-75
2023/03/15 11:50:06;;;;;;;0.50;0.10;;;7.90;99.90;;;;;;5012919;28;20542;-78
2023/03/15 11:52:34;;;;;;;0.50;0.10;;;7.90;99.90;;;;;;5007780;28;20452;-75
2023/03/15 11:55:03;;;;;;;0.50;0.10;;;7.80;99.90;;;;;;5012842;28;20525;-77
2023/03/15 11:57:45;;;;;;;0.50;0.10;;;7.80;99.90;;;;;;4997870;28;20487;-73
2023/03/15 12:00:41;;;;;;;0.70;0.30;;;7.90;99.90;;;;;;4998470;28;20504;-72
2023/03/15 12:03:29;;;;;;;3.03;0.50;;;7.90;99.90;;;;;;5004563;28;20456;-73
2023/03/15 12:06:01;;;;;;;0.50;0.10;;;7.90;99.90;;;;;;5012925;28;20475;-73
2023/03/15 12:08:49;;;;;;;0.50;0.20;;;7.90;99.90;;;;;;5015598;28;21029;-73
2023/03/15 12:11:37;;;;;;;0.50;0.10;;;7.80;99.90;;;;;;5003949;28;20487;-73
2023/03/15 12:14:28;;;;;;;0.50;0.10;;;7.80;99.90;;;;;;5015861;28;20463;-78
2023/03/15 12:17:42;;;;;;;0.50;0.10;;;7.80;99.90;;;;;;5021209;28;20478;-79
2023/03/15 12:20:21;;;;;;;0.50;0.10;;;7.80;99.90;;;;;;4937689;29;20467;-77
2023/03/15 12:22:51;;;;;;;0.50;0.10;;;7.80;99.90;;;;;;5000675;28;20468;-77
2023/03/15 12:25:29;;;;;;;0.50;0.10;;;7.90;99.90;;;;;;4995277;28;20468;-79
2023/03/15 12:27:58;;;;;;;0.60;0.33;;;7.90;99.90;;;;;;4995522;28;20912;-78
2023/03/15 12:30:33;;;;;;;0.50;0.10;;;7.70;99.90;;;;;;4995723;28;20449;-78
2023/03/15 12:33:02;;;;;;;0.50;0.10;;;7.70;99.90;;;;;;5010562;28;20455;-79
2023/03/15 12:35:38;;;;;;;0.50;0.10;;;7.80;99.90;;;;;;5003237;28;20852;-79
2023/03/15 12:38:12;;;;;;;0.50;0.10;;;7.80;99.90;;;;;;5007723;28;20464;-80
2023/03/15 12:40:51;;;;;;;0.50;0.10;;;7.80;99.90;;;;;;5016937;28;20509;-79
2023/03/15 12:43:39;;;;;;;0.50;0.10;;;8.00;99.90;;;;;;5017121;28;20947;-79
2023/03/15 12:46:47;;;;;;;0.50;0.10;;;8.00;99.90;;;;;;5015150;28;20483;-78
2023/03/15 12:49:31;;;;;;;0.50;0.30;;;8.10;99.90;;;;;;5015942;28;21222;-78
2023/03/15 12:52:01;;;;;;;0.50;0.10;;;8.20;99.90;;;;;;5015411;28;20475;-80
2023/03/15 12:54:36;;;;;;;0.50;0.10;;;8.30;99.90;;;;;;5014436;28;20440;-78
2023/03/15 12:57:05;;;;;;;0.50;0.20;;;8.30;99.90;;;;;;5014996;28;20505;-79
2023/03/15 12:59:40;;;;;;;0.50;0.10;;;8.40;99.90;;;;;;5017728;28;20460;-81
2023/03/15 13:02:25;;;;;;;0.50;0.10;;;8.40;99.90;;;;;;5015979;28;20450;-78
2023/03/15 13:05:22;;;;;;;0.50;0.10;;;8.30;99.90;;;;;;5000071;28;20471;-77
2023/03/15 13:08:03;;;;;;;0.70;0.40;;;8.30;99.90;;;;;;5031734;28;20447;-77
2023/03/15 13:10:39;;;;;;;0.50;0.10;;;8.00;99.90;;;;;;5015714;28;20463;-78
2023/03/15 13:13:25;;;;;;;0.80;0.37;;;7.90;99.90;;;;;;5025892;28;20955;-78
2023/03/15 13:16:07;;;;;;;0.50;0.10;;;7.80;99.90;;;;;;5005897;28;20483;-78
2023/03/15 13:18:48;;;;;;;0.50;0.10;;;7.80;99.90;;;;;;5016073;28;20973;-77
2023/03/15 13:21:20;;;;;;;0.50;0.10;;;7.90;99.90;;;;;;5012430;28;20456;-78
2023/03/15 13:23:51;;;;;;;0.50;0.10;;;7.90;99.90;;;;;;5012783;28;20446;-81
2023/03/15 13:26:44;;;;;;;0.70;0.30;;;8.00;99.90;;;;;;5007864;28;20963;-78
2023/03/15 13:29:16;;;;;;;0.50;0.20;;;8.10;99.90;;;;;;5008220;28;20455;-79
2023/03/15 13:31:45;;;;;;;0.50;0.10;;;8.10;99.90;;;;;;5013566;28;20852;-78
2023/03/15 13:34:19;;;;;;;0.50;0.10;;;8.00;99.90;;;;;;5017239;28;20459;-77
2023/03/15 13:36:53;;;;;;;2.20;0.67;;;7.90;99.90;;;;;;5016792;28;20482;-79
2023/03/15 13:39:23;;;;;;;0.50;0.10;;;7.90;99.90;;;;;;5029688;28;20442;-79
2023/03/15 13:41:57;;;;;;;0.50;0.10;;;7.90;99.90;;;;;;5025725;28;20435;-79
2023/03/15 13:44:25;;;;;;;0.50;0.10;;;10.20;99.90;;;;;;5015546;28;20470;-80
2023/03/15 13:46:54;;;;;;;0.50;0.10;;;8.00;99.90;;;;;;5015671;28;20814;-77
2023/03/15 13:49:24;;;;;;;0.50;0.10;;;8.10;99.90;;;;;;5006038;28;20959;-77
2023/03/15 13:51:53;;;;;;;0.50;0.20;;;8.10;99.90;;;;;;5020126;28;20997;-77
2023/03/15 13:54:26;;;;;;;0.50;0.10;;;8.20;99.90;;;;;;5015787;28;20455;-78
2023/03/15 13:56:58;;;;;;;0.50;0.10;;;8.30;99.90;;;;;;5017108;28;20440;-78
2023/03/15 13:59:31;;;;;;;0.50;0.10;;;8.50;99.90;;;;;;5016500;28;20448;-78
2023/03/15 14:02:01;;;;;;;0.50;0.10;;;8.70;99.90;;;;;;5016910;28;20520;-77
2023/03/15 14:04:36;;;;;;;0.50;0.10;;;8.70;99.90;;;;;;5032747;28;20428;-80
2023/03/15 14:07:19;;;;;;;0.50;0.10;;;8.70;99.90;;;;;;5035411;28;20507;-77
2023/03/15 14:09:47;;;;;;;0.50;0.10;;;8.80;99.90;;;;;;5022299;28;20461;-80
2023/03/15 14:12:21;;;;;;;0.50;0.10;;;8.70;99.90;;;;;;5025196;28;20498;-77
2023/03/15 14:14:51;;;;;;;0.50;0.10;;;8.50;99.90;;;;;;4996115;28;20519;-78
2023/03/15 14:17:25;;;;;;;0.50;0.20;;;8.50;99.90;;;;;;4995725;28;20457;-80
2023/03/15 14:19:56;;;;;;;0.80;0.60;;;8.60;99.90;;;;;;5003729;28;20452;-78
2023/03/15 14:22:31;;;;;;;0.50;0.10;;;8.60;99.90;;;;;;5013778;28;20452;-80
2023/03/15 14:24:59;;;;;;;0.50;0.10;;;8.60;99.90;;;;;;4995997;28;20815;-76
2023/03/15 14:27:29;;;;;;;0.50;0.10;;;8.50;99.90;;;;;;5011360;28;20452;-75
2023/03/15 14:29:59;;;;;;;0.50;0.10;;;8.50;99.90;;;;;;5014373;28;20436;-76
2023/03/15 14:32:29;;;;;;;0.50;0.10;;;8.60;99.90;;;;;;5012947;28;20541;-78
2023/03/15 14:35:02;;;;;;;0.50;0.10;;;8.80;99.90;;;;;;5011005;28;20483;-77
2023/03/15 14:37:37;;;;;;;5.23;2.57;;;8.80;99.90;;;;;;5013694;28;20447;-78
2023/03/15 14:40:12;;;;;;;0.50;0.10;;;9.00;99.90;;;;;;5015269;28;20459;-79
2023/03/15 14:42:42;;;;;;;0.50;0.10;;;9.00;99.90;;;;;;5007736;28;20519;-78
2023/03/15 14:45:10;;;;;;;0.50;0.10;;;9.00;99.90;;;;;;5012450;28;20472;-78
2023/03/15 14:47:42;;;;;;;0.50;0.10;;;9.00;99.90;;;;;;5022275;28;20464;-79
2023/03/15 14:50:27;;;;;;;0.50;0.10;;;9.00;99.90;;;;;;5012819;28;20441;-77
2023/03/15 14:52:56;;;;;;;0.50;0.10;;;9.10;99.90;;;;;;4999431;28;20508;-80
2023/03/15 14:55:29;;;;;;;0.50;0.10;;;9.20;99.90;;;;;;4998237;28;20495;-78
2023/03/15 14:57:57;;;;;;;0.80;0.33;;;9.20;99.90;;;;;;5017845;28;20456;-80
2023/03/15 15:00:25;;;;;;;0.50;0.10;;;9.50;99.90;;;;;;5012843;28;20514;-79
2023/03/15 15:02:55;;;;;;;0.50;0.10;;;9.50;99.90;;;;;;5009488;28;20951;-80
2023/03/15 15:05:26;;;;;;;1.37;0.53;;;9.50;99.90;;;;;;5000632;28;20835;-79
2023/03/15 15:08:02;;;;;;;0.80;0.50;;;9.50;99.90;;;;;;5027052;28;20561;-79
2023/03/15 15:10:30;;;;;;;0.50;0.10;;;9.60;99.90;;;;;;5017884;28;20444;-79
2023/03/15 15:12:58;;;;;;;0.50;0.10;;;9.60;99.90;;;;;;5016790;28;20480;-80
2023/03/15 15:15:33;;;;;;;0.50;0.10;;;9.60;99.90;;;;;;5017072;28;20471;-78
2023/03/15 15:18:19;;;;;;;0.50;0.10;;;9.60;99.90;;;;;;5019158;28;20458;-79
2023/03/15 15:20:50;;;;;;;0.50;0.10;;;9.60;99.90;;;;;;5017164;28;20498;-78
2023/03/15 15:23:20;;;;;;;0.70;0.20;;;9.60;99.90;;;;;;5010593;28;20830;-80
2023/03/15 15:25:50;;;;;;;0.80;0.47;;;9.50;99.90;;;;;;5018873;28;20899;-80
2023/03/15 15:28:18;;;;;;;0.50;0.10;;;9.70;99.90;;;;;;5027263;28;20812;-80
2023/03/15 15:31:01;;;;;;;0.50;0.10;;;9.70;99.90;;;;;;5008020;28;20475;-80
2023/03/15 15:33:30;;;;;;;0.70;0.30;;;;;;;;;;5022416;28;20481;-79
2023/03/15 15:36:00;;;;;;;0.50;0.10;;;;;;;;;;5015714;28;20468;-78
2023/03/15 15:38:31;;;;;;;0.50;0.10;;;9.70;99.90;;;;;;5016595;28;20447;-80
2023/03/15 15:40:59;;;;;;;0.60;0.10;;;9.80;99.90;;;;;;5021018;28;20539;-80
2023/03/15 15:43:27;;;;;;;0.60;0.10;;;9.80;99.90;;;;;;5031490;28;20429;-79
2023/03/15 15:45:55;;;;;;;0.50;0.10;;;9.80;99.90;;;;;;5027650;28;20542;-80
2023/03/15 15:48:23;;;;;;;0.60;0.10;;;9.80;99.90;;;;;;5022844;28;20437;-83
2023/03/15 15:50:51;;;;;;;0.50;0.10;;;9.80;99.90;;;;;;5036991;28;20467;-79
2023/03/15 15:53:20;;;;;;;0.50;0.10;;;9.90;99.90;;;;;;5040301;28;20475;-80
2023/03/15 15:55:48;;;;;;;0.53;0.10;;;10.00;99.90;;;;;;5031550;28;20510;-78
2023/03/15 15:58:16;;;;;;;0.60;0.10;;;10.10;99.90;;;;;;5021532;28;20449;-81
2023/03/15 16:00:44;;;;;;;0.60;0.10;;;;;;;;;;5020955;28;20532;-79
2023/03/15 16:03:14;;;;;;;0.60;0.10;;;10.60;99.90;;;;;;5011489;28;20507;-78
2023/03/15 16:05:42;;;;;;;0.70;0.30;;;10.60;99.90;;;;;;4999023;28;20488;-78
2023/03/15 16:08:20;;;;;;;1.10;0.80;;;10.70;99.90;;;;;;4999127;28;20442;-78
2023/03/15 16:10:49;;;;;;;0.60;0.10;;;10.90;99.90;;;;;;5015365;28;20465;-80
2023/03/15 16:13:17;;;;;;;0.60;0.10;;;;;;;;;;5015120;28;20487;-81
2023/03/15 16:15:46;;;;;;;0.60;0.20;;;10.60;99.90;;;;;;5010988;28;21149;-75
2023/03/15 16:18:14;;;;;;;0.60;0.10;;;10.50;99.90;;;;;;5018325;28;20471;-77
2023/03/15 16:20:43;;;;;;;0.60;0.20;;;;;;;;;;5012418;28;20449;-80
2023/03/15 16:23:19;;;;;;;0.60;0.10;;;10.90;99.90;;;;;;5021660;28;20440;-80
2023/03/15 16:25:50;;;;;;;0.60;0.10;;;11.20;99.90;;;;;;5007276;28;20495;-78
2023/03/15 16:28:19;;;;;;;0.60;0.10;;;;;;;;;;5007257;28;20475;-78
2023/03/15 16:30:47;;;;;;;0.60;0.10;;;11.10;99.90;;;;;;5024986;28;20458;-79
2023/03/15 16:33:17;;;;;;;0.60;0.20;;;11.30;99.90;;;;;;5033472;28;20478;-79
2023/03/15 16:35:47;;;;;;;0.60;0.10;;;11.50;99.90;;;;;;5036316;28;20490;-78
2023/03/15 16:38:22;;;;;;;0.53;0.10;;;11.60;99.90;;;;;;5039010;28;20444;-78
2023/03/15 16:40:52;;;;;;;0.60;0.10;;;11.60;99.90;;;;;;5036968;28;20450;-77
2023/03/15 16:43:21;;;;;;;0.60;0.20;;;11.60;99.90;;;;;;5036843;28;20437;-77
2023/03/15 16:45:49;;;;;;;0.60;0.10;;;;;;;;;;5037034;28;20471;-77
2023/03/15 16:48:17;;;;;;;0.60;0.10;;;11.20;99.90;;;;;;5036113;28;20535;-77
2023/03/15 16:50:47;;;;;;;0.60;0.10;;;;;;;;;;5020860;28;20503;-78
2023/03/15 16:53:15;;;;;;;0.50;0.20;;;;;;;;;;5030539;28;20491;-78
2023/03/15 16:55:43;;;;;;;0.53;0.10;;;;;;;;;;5023765;28;20867;-79
2023/03/15 16:58:16;;;;;;;0.50;0.10;;;10.50;99.90;;;;;;5023302;28;20451;-79
2023/03/15 17:00:46;;;;;;;0.80;0.67;;;10.20;99.90;;;;;;5036059;28;20455;-78
2023/03/15 17:03:15;;;;;;;0.53;0.10;;;10.20;99.90;;;;;;5035599;28;20455;-79
2023/03/15 17:05:46;;;;;;;0.50;0.10;;;9.80;99.90;;;;;;5036794;28;20478;-79
2023/03/15 17:08:18;;;;;;;0.50;0.10;;;9.80;99.90;;;;;;5042148;28;20450;-78
2023/03/15 17:10:48;;;;;;;0.50;0.10;;;;;;;;;;5031977;28;20440;-81
2023/03/15 17:13:24;;;;;;;0.50;0.10;;;8.90;99.90;;;;;;5020015;28;20891;-77
2023/03/15 17:15:53;;;;;;;0.50;0.10;;;;;;;;;;5003280;28;20865;-78
2023/03/15 17:18:22;;;;;;;0.50;0.10;;;8.20;99.90;;;;;;5001587;28;20444;-78
2023/03/15 17:20:51;;;;;;;2.30;1.37;;;8.60;99.90;;;;;;5014265;28;20498;-78
2023/03/15 17:23:20;;;;;;;0.50;0.10;;;;;;;;;;5014338;28;20443;-78
2023/03/15 17:25:48;;;;;;;0.50;0.10;;;8.30;99.90;;;;;;5012622;28;20607;-79